Aeroporto :
LOGIN :

Iscrizione | Disclaimer

   EN    FR    IT 

 










Sommario :    VFR   VFR Marginale   IFR   IFR Intensivo   IFR Molto Intensivo
Visibilità : 
Base nubi : 
>= 8 km
>= 3000ft
5 / 8 km
1000 / 3000 ft
1500m / 5 km
500 / 1000 ft
800 / 1500m
200 / 500 ft
< 800m
< 200 ft
Simboli :   Temporali  Nebbia  Neve Forte  Precipitazioni Forti  Vento > 20 kt
SIGMETs :   Varie  Temporali  Ghiacco  Turbolenza  Onda orograficha  Ceneri Vulcaniche






- Altitudine del aeroporto : 3368 ft


LSGC - Les Eplatures

ULTIMO METAR :
  • 070220Z AUTO VRB02KT 1200 -SN VV008 M03/M03 Q1015 REFZDZ

METARs OBSOLETI :
  • 070150Z AUTO 01003KT 0550 FZFG VV002 M03/M03 Q1015 RESN
  • 070120Z AUTO 04003KT 010V110 0350 FZFG VV001 M03/M03 Q1015
  • 070050Z AUTO 03003KT 0450 FZFG VV002 M03/M03 Q1015
  • 070020Z AUTO VRB01KT 1600 BR NCD M03/M03 Q1015 REFZDZ
  • 062350Z AUTO VRB02KT 2400 BR NCD M03/M03 Q1015 REFZDZ

Previsioni scadute.



MetMap, La meteo Aeronautica in un colpo d'occhio ! - Copyright ORBIFLY Dicembre 2007 - Disclaimer

ORBIFLY MET'MAP TEAM :

Programmazione e sviluppo : Alexandra Zaïnal
Concezione : Baudouin d'Aumeries
Supporto tecnico e logistico : Manuel Goepfert
Aiuto : Marc-Olivier Méhu
Aiuto per la traduzione : Arnaldo La Scala




FONTI E CREDITI :

   NOAA